Main page
METAR-TAF:

METAR-TAF

Airports :

Whiteman Air Force Base

Knob Noster, Missouri, United States

latitude: 38-44N, longitude: 093-33W, elevation: 869 ft

Current weather observation

The report was made 1 hour and 4 minutes ago, at 01:55 UTC
Wind 8 mph from the South
Temperature 86°F
Humidity 66%
Pressure 29.80 in. Hg
Visibility: 10 miles
Clear sky

METAR: KSZL 250155Z AUTO 18007KT 10SM CLR 30/23 A2980 RMK AO2 SLP084 T03000227 $

Time: 21:59 (02:59 UTC)

Forecast

The report was made 7 hours and 59 minutes ago, at 19:00 UTC
Forecast valid from 24 at 19 UTC to 26 at 01 UTC
Wind 14 mph from the South/Southwest
Visibility 6.2 miles or more
Few clouds at a height of 12000 ft

TAF: KSZL 241900Z 2419/2601 20012KT 9999 FEW120 QNH2977INS TX37/2422Z TN21/2511Z

Weather observations and forecasts of more than 4000 airports (METAR and TAF reports).

The available stations are represented by yellow and red dots on the map.

Hover mouse over dot to see the name of the station.

Then click to see weather observations and forecasts.

To change the map : click on the green buttons with a black cross to zoom in, on the green button with a dash to zoom out, or on the green arrows for adjacent maps.


METAR-TAF: